Time;durP1;ratioP1;P1;durP2;ratioP2;P2;SDS_P1;SDS_P2;PMS_P1;PMS_P2;Temp;Humidity;BMP_temperature;BMP_pressure;BME280_temperature;BME280_humidity;BME280_pressure;Samples;Min_cycle;Max_cycle;Signal;HPM_P1;HPM_P2
2021/09/02 00:02:06;;;;;;;7.00;5.50;;;;;;;10.84;80.96;96484.69;6126726;23;20171;-79
2021/09/02 00:04:32;;;;;;;7.20;5.80;;;;;;;10.87;81.38;96479.25;6176811;23;20152;-80
2021/09/02 00:06:58;;;;;;;6.70;5.70;;;;;;;10.90;81.30;96478.16;6176837;23;20602;-81
2021/09/02 00:09:23;;;;;;;8.57;6.20;;;;;;;10.87;81.16;96476.66;6127518;23;20207;-79
2021/09/02 00:11:49;;;;;;;6.80;6.10;;;;;;;10.85;81.43;96475.09;6152562;23;20151;-78
2021/09/02 00:14:14;;;;;;;6.83;5.27;;;;;;;10.91;81.04;96475.44;6176736;23;20547;-80
2021/09/02 00:16:41;;;;;;;8.00;5.67;;;;;;;10.90;80.91;96468.59;6127344;23;20542;-80
2021/09/02 00:19:06;;;;;;;8.53;6.13;;;;;;;10.88;81.03;96469.66;6152236;23;20560;-79
2021/09/02 00:21:31;;;;;;;6.50;5.60;;;;;;;10.86;80.70;96471.56;6152839;23;20156;-78
2021/09/02 00:23:56;;;;;;;8.47;6.23;;;;;;;10.87;80.83;96468.84;6152215;23;20151;-79
2021/09/02 00:26:22;;;;;;;6.17;5.53;;;;;;;10.86;80.96;96469.78;6176655;23;20249;-80
2021/09/02 00:28:47;;;;;;;11.47;6.03;;;;;;;10.87;80.75;96465.44;6153086;23;20183;-77
2021/09/02 00:31:13;;;;;;;6.97;5.80;;;;;;;10.86;80.70;96464.56;6155034;23;20159;-79
2021/09/02 00:33:39;;;;;;;7.80;5.57;;;;;;;10.84;80.69;96463.88;6178414;23;20652;-79
2021/09/02 00:36:04;;;;;;;6.27;5.43;;;;;;;10.80;80.68;96467.69;6178683;23;20151;-79
2021/09/02 00:38:32;;;;;;;9.97;6.00;;;;;;;10.75;80.92;96469.84;6153503;23;20202;-78
2021/09/02 00:40:57;;;;;;;6.60;5.83;;;;;;;10.73;81.21;96469.16;6153671;23;20163;-78
2021/09/02 00:43:22;;;;;;;12.53;6.30;;;;;;;10.71;81.42;96469.28;6151418;23;20163;-79
2021/09/02 00:45:47;;;;;;;9.33;6.30;;;;;;;10.66;81.45;96455.84;6129235;23;20493;-79
2021/09/02 00:48:14;;;;;;;7.17;5.73;;;;;;;10.64;81.64;96468.13;6155272;23;20656;-80
2021/09/02 00:50:40;;;;;;;7.87;5.70;;;;;;;10.58;81.85;96460.00;6104670;23;20171;-79
2021/09/02 00:53:06;;;;;;;7.77;5.77;;;;;;;10.56;82.05;96448.94;6154658;23;20162;-80
2021/09/02 00:55:32;;;;;;;6.53;5.90;;;;;;;10.70;81.63;96453.81;6128955;23;20505;-79
2021/09/02 00:57:59;;;;;;;7.60;6.37;;;;;;;10.66;81.97;96452.41;6104418;23;20190;-80
2021/09/02 01:00:24;;;;;;;8.57;6.23;;;;;;;10.69;82.15;96449.56;6104658;23;20159;-79
2021/09/02 01:02:50;;;;;;;7.87;6.37;;;;;;;10.69;82.39;96442.63;6177601;23;20162;-79
2021/09/02 01:05:19;;;;;;;8.73;6.73;;;;;;;10.63;83.04;96447.47;6153552;23;20160;-78
2021/09/02 01:07:46;;;;;;;8.73;7.10;;;;;;;10.57;83.49;96446.19;6128788;23;20178;-79
2021/09/02 01:10:11;;;;;;;8.00;7.20;;;;;;;10.53;83.88;96450.00;6129067;23;20500;-79
2021/09/02 01:12:45;;;;;;;8.40;7.50;;;;;;;10.46;84.12;96441.88;6103986;23;20155;-79
2021/09/02 01:15:16;;;;;;;11.47;7.73;;;;;;;10.48;84.49;96447.78;6153353;23;20609;-79
2021/09/02 01:17:47;;;;;;;8.57;7.03;;;;;;;10.45;84.56;96442.03;6129311;23;20147;-79
2021/09/02 01:20:17;;;;;;;8.67;7.40;;;;;;;10.40;84.36;96447.56;6128875;23;20155;-78
2021/09/02 01:22:47;;;;;;;8.20;7.10;;;;;;;10.33;84.76;96441.22;6103907;23;20151;-79
2021/09/02 01:25:14;;;;;;;7.90;6.93;;;;;;;10.34;84.58;96439.47;6035260;23;21625;-79
2021/09/02 01:27:41;;;;;;;9.20;7.43;;;;;;;10.36;84.75;96437.56;6127623;23;20179;-78
2021/09/02 01:30:09;;;;;;;9.33;7.43;;;;;;;10.30;84.84;96436.28;6153137;23;20159;-80
2021/09/02 01:32:36;;;;;;;9.17;7.57;;;;;;;10.30;84.81;96436.28;6153455;23;20148;-79
2021/09/02 01:35:04;;;;;;;9.43;7.93;;;;;;;10.32;84.53;96433.56;6152884;23;20193;-78
2021/09/02 01:37:48;;;;;;;9.07;7.00;;;;;;;10.42;84.07;96429.25;6153335;23;20168;-78
2021/09/02 01:40:17;;;;;;;10.20;7.87;;;;;;;10.46;84.35;96417.69;6152829;23;20293;-78
2021/09/02 01:42:43;;;;;;;8.00;7.20;;;;;;;10.47;84.04;96425.34;6160603;23;20155;-78
2021/09/02 01:45:08;;;;;;;9.23;7.70;;;;;;;10.57;83.83;96422.00;6159283;23;20234;-77
2021/09/02 01:47:34;;;;;;;12.10;7.97;;;;;;;10.61;83.52;96423.41;6152605;23;20162;-77
2021/09/02 01:50:09;;;;;;;10.50;7.03;;;;;;;10.53;83.63;96424.03;6152934;23;20536;-78
2021/09/02 01:52:35;;;;;;;9.47;7.60;;;;;;;10.53;83.89;96423.22;6154457;23;20139;-78
2021/09/02 01:55:00;;;;;;;8.57;7.17;;;;;;;10.56;83.75;96420.34;6152257;23;20237;-79
2021/09/02 01:57:26;;;;;;;7.73;6.70;;;;;;;10.55;83.30;96418.72;6127450;23;20258;-77
2021/09/02 01:59:51;;;;;;;8.67;7.17;;;;;;;10.52;83.41;96416.38;6128226;23;20163;-78
2021/09/02 02:02:16;;;;;;;9.33;7.03;;;;;;;10.68;82.74;96420.16;6152533;23;20195;-78
2021/09/02 02:04:42;;;;;;;9.00;7.67;;;;;;;10.61;82.36;96418.22;6152398;23;20613;-78
2021/09/02 02:07:07;;;;;;;8.37;6.87;;;;;;;10.67;82.19;96415.09;6151817;23;20190;-79
2021/09/02 02:09:32;;;;;;;9.07;7.20;;;;;;;10.70;82.32;96425.25;6152610;23;20163;-78
2021/09/02 02:11:58;;;;;;;9.70;7.20;;;;;;;10.61;82.30;96420.81;6153214;23;20170;-79
2021/09/02 02:14:23;;;;;;;11.93;7.57;;;;;;;10.57;82.32;96415.03;6152674;23;20179;-77
2021/09/02 02:16:48;;;;;;;11.10;7.30;;;;;;;10.52;82.45;96424.16;6153712;23;20253;-78
2021/09/02 02:19:13;;;;;;;11.60;8.03;;;;;;;10.47;82.57;96424.53;6152506;23;20600;-79
2021/09/02 02:21:39;;;;;;;7.73;6.93;;;;;;;10.37;83.03;96424.47;6152936;23;20159;-78
2021/09/02 02:24:04;;;;;;;9.53;7.17;;;;;;;10.41;83.44;96419.84;6152552;23;20488;-78
2021/09/02 02:26:29;;;;;;;9.07;7.20;;;;;;;10.37;83.60;96419.28;6150647;23;20718;-79
2021/09/02 02:28:55;;;;;;;8.00;7.20;;;;;;;10.34;83.73;96413.50;6154051;23;20162;-78
2021/09/02 02:31:20;;;;;;;8.83;7.13;;;;;;;10.29;83.98;96416.47;6152825;23;20459;-78
2021/09/02 02:33:45;;;;;;;11.70;7.63;;;;;;;10.25;84.51;96417.69;6152441;23;20187;-79
2021/09/02 02:36:11;;;;;;;8.63;7.73;;;;;;;10.25;84.47;96420.28;6151659;23;20512;-78
2021/09/02 02:38:36;;;;;;;8.90;7.93;;;;;;;10.21;84.48;96424.03;6127926;23;20208;-80
2021/09/02 02:41:02;;;;;;;8.63;7.67;;;;;;;10.17;84.78;96415.66;6152673;23;20664;-79
2021/09/02 02:43:27;;;;;;;11.57;7.77;;;;;;;10.14;84.99;96417.66;6152410;23;20162;-79
2021/09/02 02:45:53;;;;;;;8.77;7.57;;;;;;;10.09;85.24;96410.28;6127300;23;20571;-79
2021/09/02 02:48:19;;;;;;;9.37;6.80;;;;;;;10.13;84.95;96410.84;6152652;23;20515;-80
2021/09/02 02:50:44;;;;;;;8.70;7.67;;;;;;;10.14;84.65;96413.31;6152417;23;20155;-79
2021/09/02 02:53:09;;;;;;;10.03;7.63;;;;;;;10.13;84.55;96413.44;6152214;23;20155;-80
2021/09/02 02:55:34;;;;;;;12.30;7.17;;;;;;;10.14;84.50;96410.72;6151344;23;20194;-80
2021/09/02 02:58:00;;;;;;;9.57;7.63;;;;;;;10.08;84.72;96416.41;6153038;23;20167;-79
2021/09/02 03:00:25;;;;;;;8.67;7.77;;;;;;;10.14;84.65;96415.06;6152434;23;20155;-78
2021/09/02 03:02:50;;;;;;;9.30;7.50;;;;;;;10.13;84.35;96410.84;6152824;23;20212;-80
2021/09/02 03:05:16;;;;;;;10.60;7.90;;;;;;;10.10;84.39;96416.28;6151664;23;20182;-78
2021/09/02 03:07:41;;;;;;;10.27;7.83;;;;;;;10.06;85.01;96417.47;6152175;23;20159;-79
2021/09/02 03:10:07;;;;;;;9.57;7.77;;;;;;;10.04;84.68;96420.19;6152268;23;20166;-79
2021/09/02 03:12:34;;;;;;;10.00;7.60;;;;;;;10.06;84.20;96423.47;6127789;23;20542;-79
2021/09/02 03:15:00;;;;;;;10.80;8.13;;;;;;;10.05;85.05;96416.63;6151481;23;20266;-78
2021/09/02 03:17:25;;;;;;;10.97;7.77;;;;;;;10.02;84.30;96413.47;6151487;23;20619;-78
2021/09/02 03:19:50;;;;;;;8.80;7.27;;;;;;;10.04;84.63;96414.16;6152313;23;20483;-79
2021/09/02 03:22:15;;;;;;;8.60;6.50;;;;;;;10.03;84.91;96409.94;6151891;23;20163;-79
2021/09/02 03:24:41;;;;;;;10.27;8.23;;;;;;;9.99;84.68;96406.78;6152676;23;20155;-79
2021/09/02 03:27:06;;;;;;;8.90;7.83;;;;;;;10.00;84.95;96407.59;6150008;23;20183;-78
2021/09/02 03:29:32;;;;;;;11.17;8.30;;;;;;;9.97;84.75;96408.63;6152238;23;20155;-78
2021/09/02 03:31:57;;;;;;;11.43;7.87;;;;;;;10.01;85.22;96409.25;6151906;23;20183;-80
2021/09/02 03:34:22;;;;;;;10.20;7.50;;;;;;;9.98;84.70;96409.47;6152302;23;20175;-79
2021/09/02 03:36:49;;;;;;;12.43;8.37;;;;;;;10.09;85.22;96399.88;6126754;23;20179;-79
2021/09/02 03:39:14;;;;;;;9.63;7.83;;;;;;;10.04;85.18;96401.19;6152402;23;20166;-78
2021/09/02 03:41:43;;;;;;;11.87;8.73;;;;;;;10.04;85.26;96403.78;6151932;23;20159;-79
2021/09/02 03:44:08;;;;;;;10.23;8.13;;;;;;;10.04;85.02;96411.56;6152375;23;20151;-80
2021/09/02 03:46:33;;;;;;;10.53;8.70;;;;;;;10.09;85.03;96409.44;6151628;23;20631;-78
2021/09/02 03:48:59;;;;;;;11.87;9.43;;;;;;;10.13;84.85;96416.84;6152134;23;20608;-79
2021/09/02 03:51:24;;;;;;;9.73;7.93;;;;;;;10.08;85.14;96411.22;6151700;23;20218;-79
2021/09/02 03:53:49;;;;;;;9.43;8.43;;;;;;;10.16;84.89;96421.00;6152134;23;20510;-80
2021/09/02 03:56:15;;;;;;;10.23;8.13;;;;;;;10.11;84.74;96410.13;6151149;23;20175;-78
2021/09/02 03:58:40;;;;;;;11.83;8.93;;;;;;;10.07;85.48;96406.97;6151894;23;20162;-79
2021/09/02 04:01:05;;;;;;;11.60;9.03;;;;;;;10.20;85.04;96409.41;6152342;23;20526;-79
2021/09/02 04:03:31;;;;;;;10.87;8.20;;;;;;;10.15;85.19;96404.56;6153436;23;20159;-79
2021/09/02 04:05:56;;;;;;;12.70;9.10;;;;;;;10.13;85.37;96409.06;6153119;23;20183;-80
2021/09/02 04:08:21;;;;;;;9.43;8.27;;;;;;;10.14;85.11;96408.09;6154172;23;20143;-80
2021/09/02 04:10:47;;;;;;;11.00;8.90;;;;;;;10.23;84.69;96411.75;6154157;23;20151;-80
2021/09/02 04:13:12;;;;;;;9.53;8.37;;;;;;;10.24;84.93;96410.81;6129325;23;20167;-80
2021/09/02 04:15:37;;;;;;;12.10;9.27;;;;;;;10.20;85.06;96418.00;6154776;23;20183;-79
2021/09/02 04:18:02;;;;;;;9.47;8.23;;;;;;;10.17;85.05;96407.88;6153967;23;20160;-79
2021/09/02 04:20:28;;;;;;;9.90;8.23;;;;;;;10.14;85.23;96413.31;6155348;23;20159;-79
2021/09/02 04:22:53;;;;;;;10.30;8.60;;;;;;;10.09;85.09;96415.47;6154204;23;20209;-80
2021/09/02 04:25:19;;;;;;;12.00;9.43;;;;;;;10.04;85.47;96412.41;6152974;23;20183;-80
2021/09/02 04:27:44;;;;;;;12.83;9.40;;;;;;;10.02;85.40;96408.28;6153893;23;20181;-77
2021/09/02 04:30:13;;;;;;;9.57;8.27;;;;;;;10.01;85.76;96406.66;6152345;23;20199;-80
2021/09/02 04:32:38;;;;;;;10.97;8.37;;;;;;;10.05;86.01;96398.47;6154049;23;20186;-79
2021/09/02 04:35:04;;;;;;;11.57;9.10;;;;;;;10.00;85.84;96402.41;6153081;23;20187;-79
2021/09/02 04:37:29;;;;;;;13.50;9.33;;;;;;;9.96;85.71;96404.41;6153330;23;20163;-80
2021/09/02 04:39:55;;;;;;;13.50;9.87;;;;;;;10.02;85.87;96403.09;6153827;23;20239;-80
2021/09/02 04:42:20;;;;;;;9.47;8.47;;;;;;;9.98;85.90;96407.69;6155693;23;20162;-79
2021/09/02 04:44:45;;;;;;;11.20;8.33;;;;;;;10.13;85.60;96409.06;6155159;23;20151;-80
2021/09/02 04:47:10;;;;;;;11.57;9.27;;;;;;;10.16;85.32;96421.00;6152829;23;20179;-80
2021/09/02 04:49:36;;;;;;;10.00;8.30;;;;;;;10.19;85.13;96418.97;6153649;23;20198;-80
2021/09/02 04:52:01;;;;;;;10.83;8.30;;;;;;;10.23;85.04;96419.56;6152022;23;20210;-80
2021/09/02 04:54:26;;;;;;;12.60;8.87;;;;;;;10.21;84.60;96416.22;6153413;23;20179;-79
2021/09/02 04:56:52;;;;;;;9.47;8.47;;;;;;;10.19;84.90;96425.94;6152525;23;20194;-80
2021/09/02 04:59:17;;;;;;;11.37;8.87;;;;;;;10.14;84.76;96423.69;6153497;23;20206;-79
2021/09/02 05:01:42;;;;;;;10.80;9.03;;;;;;;10.19;84.52;96425.94;6153476;23;20218;-80
2021/09/02 05:04:08;;;;;;;12.67;8.77;;;;;;;10.20;84.45;96428.38;6155134;23;20143;-80
2021/09/02 05:06:33;;;;;;;10.70;8.97;;;;;;;10.23;84.59;96421.31;6152579;23;20179;-78
2021/09/02 05:08:58;;;;;;;11.30;8.30;;;;;;;10.23;84.43;96419.56;6153795;23;20155;-80
2021/09/02 05:11:23;;;;;;;10.23;8.63;;;;;;;10.24;84.57;96425.56;6153432;23;20166;-80
2021/09/02 05:13:49;;;;;;;9.97;8.63;;;;;;;10.25;84.26;96420.28;6152963;23;20300;-81
2021/09/02 05:16:14;;;;;;;11.00;8.60;;;;;;;10.31;84.36;96422.34;6152572;23;20840;-78
2021/09/02 05:18:39;;;;;;;9.90;8.13;;;;;;;10.37;84.20;96424.47;6154136;23;20467;-79
2021/09/02 05:21:05;;;;;;;13.20;8.90;;;;;;;10.38;83.84;96420.91;6155181;23;20486;-79
2021/09/02 05:23:30;;;;;;;9.00;8.10;;;;;;;10.50;83.97;96422.50;6153923;23;20187;-82
2021/09/02 05:25:55;;;;;;;11.20;7.97;;;;;;;10.50;83.72;96425.09;6152845;23;20194;-79
2021/09/02 05:28:20;;;;;;;10.50;8.13;;;;;;;10.52;83.51;96427.59;6153213;23;20160;-79
2021/09/02 05:30:46;;;;;;;11.70;8.20;;;;;;;10.58;83.40;96426.25;6152718;23;20159;-80
2021/09/02 05:33:11;;;;;;;9.10;7.57;;;;;;;10.59;83.62;96427.88;6153332;23;20589;-83
2021/09/02 05:35:36;;;;;;;9.80;7.90;;;;;;;10.63;83.54;96426.69;6152878;23;20183;-83
2021/09/02 05:38:02;;;;;;;10.73;8.67;;;;;;;10.69;83.24;96426.19;6154218;23;20202;-81
2021/09/02 05:40:27;;;;;;;11.70;8.20;;;;;;;10.73;82.89;96420.63;6154021;23;20152;-80
2021/09/02 05:42:52;;;;;;;12.37;7.80;;;;;;;10.82;82.86;96421.63;6153099;23;20250;-81
2021/09/02 05:45:18;;;;;;;10.17;7.90;;;;;;;10.89;82.56;96427.97;6153046;23;20249;-82
2021/09/02 05:47:43;;;;;;;12.13;8.70;;;;;;;10.90;82.54;96419.22;6155334;23;20202;-85
2021/09/02 05:50:09;;;;;;;10.17;7.87;;;;;;;11.02;82.51;96417.34;6130111;23;20169;-83
2021/09/02 05:52:34;;;;;;;13.33;9.13;;;;;;;11.04;82.25;96424.09;6124808;23;20178;-78
2021/09/02 05:54:59;;;;;;;10.73;8.73;;;;;;;11.12;81.92;96414.78;6150397;23;20183;-78
2021/09/02 05:57:25;;;;;;;12.30;8.97;;;;;;;11.18;81.49;96414.28;6152216;23;20151;-78
2021/09/02 05:59:50;;;;;;;14.23;8.33;;;;;;;11.16;81.88;96419.63;6153069;23;20159;-81
2021/09/02 06:02:16;;;;;;;10.20;8.40;;;;;;;11.24;81.65;96413.78;6128559;23;20178;-78
2021/09/02 06:04:41;;;;;;;10.90;8.00;;;;;;;11.29;80.88;96409.00;6153467;23;20186;-80
2021/09/02 06:07:06;;;;;;;10.50;8.20;;;;;;;11.38;81.19;96420.38;6152211;23;20233;-79
2021/09/02 06:09:32;;;;;;;9.17;7.27;;;;;;;11.41;81.26;96420.97;6152697;23;20159;-80
2021/09/02 06:11:57;;;;;;;12.67;8.30;;;;;;;11.46;81.04;96410.97;6152873;23;20162;-80
2021/09/02 06:14:22;;;;;;;8.97;7.83;;;;;;;11.50;80.94;96420.19;6152806;23;20636;-78
2021/09/02 06:16:48;;;;;;;11.20;8.03;;;;;;;11.66;80.46;96424.03;6153896;23;20178;-81
2021/09/02 06:19:13;;;;;;;10.70;8.20;;;;;;;11.65;80.23;96428.41;6152740;23;20492;-82
2021/09/02 06:21:39;;;;;;;10.60;7.77;;;;;;;11.83;80.01;96415.63;6153117;23;20310;-81
2021/09/02 06:24:04;;;;;;;10.33;7.70;;;;;;;11.85;79.71;96421.53;6152143;23;20242;-81
2021/09/02 06:26:29;;;;;;;11.27;8.20;;;;;;;11.93;79.79;96432.09;6127282;23;20194;-81
2021/09/02 06:28:55;;;;;;;8.43;7.33;;;;;;;12.06;78.76;96432.66;6152246;23;20544;-79
2021/09/02 06:31:20;;;;;;;10.90;7.73;;;;;;;12.03;78.84;96438.13;6152730;23;20163;-80
2021/09/02 06:33:45;;;;;;;9.27;7.47;;;;;;;12.07;79.20;96439.50;6152234;23;20219;-80
2021/09/02 06:36:11;;;;;;;8.40;7.27;;;;;;;12.19;78.86;96442.78;6152054;23;20171;-81
2021/09/02 06:38:37;;;;;;;8.67;6.97;;;;;;;12.28;78.05;96441.16;6153330;23;20158;-82
2021/09/02 06:41:03;;;;;;;11.57;7.70;;;;;;;12.35;77.48;96448.28;6152599;23;20167;-80
2021/09/02 06:43:28;;;;;;;9.43;7.00;;;;;;;12.54;76.76;96446.66;6152548;23;20167;-79
2021/09/02 06:45:53;;;;;;;8.33;7.43;;;;;;;12.58;75.67;96445.44;6151926;23;20186;-79
2021/09/02 06:48:19;;;;;;;8.93;7.10;;;;;;;12.68;75.96;96448.84;6152895;23;20171;-79
2021/09/02 06:50:44;;;;;;;11.43;7.63;;;;;;;12.71;75.82;96449.38;6152341;23;20174;-81
2021/09/02 06:53:09;;;;;;;9.30;7.07;;;;;;;12.83;75.26;96446.66;6152610;23;20167;-79
2021/09/02 06:55:35;;;;;;;9.93;7.50;;;;;;;12.85;74.90;96449.94;6153326;23;20213;-78
2021/09/02 06:58:00;;;;;;;8.10;6.93;;;;;;;12.82;76.18;96450.22;6152229;23;20618;-76
2021/09/02 07:00:25;;;;;;;10.40;7.70;;;;;;;12.96;74.80;96454.97;6152811;23;20601;-80
2021/09/02 07:02:50;;;;;;;7.90;6.93;;;;;;;13.03;74.73;96453.47;6152276;23;20182;-79
2021/09/02 07:05:17;;;;;;;8.57;6.73;;;;;;;12.98;75.17;96453.88;6151573;23;20512;-80
2021/09/02 07:07:43;;;;;;;9.67;7.00;;;;;;;13.16;74.00;96456.56;6152644;23;20194;-79
2021/09/02 07:10:09;;;;;;;10.03;7.43;;;;;;;13.17;74.73;96455.63;6152581;23;20550;-80
2021/09/02 07:12:34;;;;;;;9.97;7.27;;;;;;;13.24;74.40;96450.69;6152354;23;20163;-80
2021/09/02 07:14:59;;;;;;;10.57;7.97;;;;;;;13.24;72.96;96451.50;6151655;23;20207;-76
2021/09/02 07:17:25;;;;;;;9.47;7.93;;;;;;;13.35;73.42;96441.88;6151721;23;20209;-78
2021/09/02 07:19:50;;;;;;;9.40;7.13;;;;;;;13.37;73.48;96447.78;6152925;23;20155;-80
2021/09/02 07:22:15;;;;;;;12.17;8.50;;;;;;;13.37;72.25;96453.00;6153267;23;20186;-78
2021/09/02 07:24:41;;;;;;;9.70;7.93;;;;;;;13.44;72.60;96467.13;6152601;23;20214;-79
2021/09/02 07:27:06;;;;;;;9.93;7.73;;;;;;;13.45;72.39;96461.75;6152437;23;20543;-80
2021/09/02 07:29:31;;;;;;;10.80;7.70;;;;;;;13.57;72.45;96468.44;6152596;23;20159;-83
2021/09/02 07:31:57;;;;;;;12.00;7.90;;;;;;;13.65;72.76;96465.09;6128127;23;20159;-78
2021/09/02 07:34:23;;;;;;;10.17;7.83;;;;;;;13.70;72.68;96467.28;6151938;23;20194;-80
2021/09/02 07:36:48;;;;;;;10.07;7.60;;;;;;;13.75;71.63;96460.66;6151315;23;20225;-79
2021/09/02 07:39:14;;;;;;;12.30;7.87;;;;;;;13.73;71.64;96457.38;6151945;23;20166;-79
2021/09/02 07:41:40;;;;;;;11.43;7.90;;;;;;;13.80;71.71;96462.84;6152414;23;20159;-80
2021/09/02 07:44:05;;;;;;;8.07;6.70;;;;;;;13.96;72.29;96467.41;6127676;23;20166;-79
2021/09/02 07:46:30;;;;;;;8.40;7.47;;;;;;;14.08;71.97;96466.25;6152704;23;20175;-80
2021/09/02 07:48:56;;;;;;;9.10;7.13;;;;;;;14.23;71.48;96471.81;6152404;23;20170;-79
2021/09/02 07:51:21;;;;;;;9.73;7.90;;;;;;;14.27;71.01;96471.34;6151972;23;20163;-81
2021/09/02 07:53:47;;;;;;;9.90;7.53;;;;;;;14.47;70.42;96479.91;6152267;23;20162;-82
2021/09/02 07:56:12;;;;;;;9.10;7.50;;;;;;;14.56;70.73;96489.47;6153121;23;20478;-80
2021/09/02 07:58:38;;;;;;;9.67;7.67;;;;;;;14.45;70.46;96484.47;6151902;23;20147;-80
2021/09/02 08:01:03;;;;;;;9.30;8.07;;;;;;;14.56;69.76;96488.63;6151301;23;20158;-78
2021/09/02 08:03:29;;;;;;;10.33;7.70;;;;;;;14.75;69.49;96491.09;6152232;23;20167;-81
2021/09/02 08:05:54;;;;;;;8.67;7.60;;;;;;;14.66;69.07;96487.59;6153128;23;20171;-78
2021/09/02 08:08:20;;;;;;;8.00;7.20;;;;;;;14.78;69.27;96485.59;6128425;23;20213;-80
2021/09/02 08:10:47;;;;;;;10.40;8.40;;;;;;;14.81;68.18;96489.69;6153559;23;20242;-78
2021/09/02 08:13:12;;;;;;;10.93;7.23;;;;;;;14.92;68.58;96492.88;6154159;23;20653;-78
2021/09/02 08:15:38;;;;;;;8.90;6.80;;;;;;;14.97;68.79;96502.91;6152680;23;20281;-81
2021/09/02 08:18:04;;;;;;;10.07;6.90;;;;;;;15.06;69.18;96498.56;6152718;23;20166;-81
2021/09/02 08:20:30;;;;;;;9.40;7.20;;;;;;;15.19;67.99;96497.16;6129164;23;20372;-81
2021/09/02 08:22:55;;;;;;;7.83;7.03;;;;;;;15.26;68.17;96500.81;6152291;23;20163;-79
2021/09/02 08:25:21;;;;;;;7.73;6.93;;;;;;;15.34;66.76;96496.63;6127236;23;20489;-80
2021/09/02 08:27:46;;;;;;;9.80;7.10;;;;;;;15.43;67.19;96499.13;6152281;23;20175;-81
2021/09/02 08:30:16;;;;;;;10.20;6.63;;;;;;;15.48;65.63;96498.69;6152073;23;20258;-81
2021/09/02 08:32:47;;;;;;;7.83;6.67;;;;;;;15.42;66.06;96499.28;6152299;23;20588;-80
2021/09/02 08:35:18;;;;;;;9.67;7.00;;;;;;;15.57;65.72;96497.75;6150366;23;20187;-80
2021/09/02 08:37:44;;;;;;;9.00;7.25;;;;;;;15.45;66.84;96493.75;6151598;23;20194;-80
2021/09/02 08:40:09;;;;;;;7.57;6.47;;;;;;;15.58;67.34;96494.16;6152706;23;20143;-80
2021/09/02 08:42:35;;;;;;;8.10;6.50;;;;;;;15.82;64.97;96486.47;6128712;23;20155;-79
2021/09/02 08:45:00;;;;;;;9.77;6.37;;;;;;;15.93;63.76;96487.97;6157515;23;20155;-80
2021/09/02 08:47:25;;;;;;;9.70;6.77;;;;;;;15.98;62.58;96492.72;6158051;23;20182;-79
2021/09/02 08:49:53;;;;;;;8.60;7.38;;;;;;;15.85;62.73;96482.69;6160019;23;20151;-79
2021/09/02 08:52:19;;;;;;;9.30;7.00;;;;;;;16.12;63.71;96492.13;6160099;23;20166;-78
2021/09/02 08:54:47;;;;;;;10.20;6.80;;;;;;;16.29;64.37;96503.47;6160763;23;20180;-80
2021/09/02 08:57:13;;;;;;;9.20;7.63;;;;;;;16.36;63.43;96486.13;6162821;23;20254;-80
2021/09/02 08:59:38;;;;;;;8.20;6.85;;;;;;;16.48;62.79;96492.72;6161441;23;20160;-81
2021/09/02 09:02:25;;;;;;;9.07;7.32;;;;;;;16.59;62.73;96484.53;6159481;23;20164;-77
2021/09/02 09:05:02;;;;;;;8.65;6.57;;;;;;;16.69;62.20;96493.09;6159636;23;20167;-81
2021/09/02 09:07:35;;;;;;;7.65;6.85;;;;;;;16.68;62.47;96485.34;6159187;23;20155;-79
2021/09/02 09:10:01;;;;;;;8.35;7.30;;;;;;;16.82;61.60;96487.38;6157608;23;20154;-79
2021/09/02 09:12:33;;;;;;;7.90;6.75;;;;;;;17.06;62.48;96489.19;6156426;23;20159;-79
2021/09/02 09:14:59;;;;;;;8.90;7.50;;;;;;;17.04;61.12;96488.50;6128636;23;20194;-82
2021/09/02 09:17:24;;;;;;;9.98;6.55;;;;;;;17.14;61.08;96488.34;6153882;23;20159;-79
2021/09/02 09:19:51;;;;;;;9.20;7.30;;;;;;;17.27;61.17;96481.59;6155531;23;20155;-79
2021/09/02 09:22:18;;;;;;;8.07;6.93;;;;;;;17.28;59.38;96475.38;6153222;23;20218;-77
2021/09/02 09:24:55;;;;;;;8.80;6.78;;;;;;;17.13;59.47;96474.41;6153883;23;20623;-78
2021/09/02 09:27:34;;;;;;;8.65;6.75;;;;;;;17.28;59.64;96466.69;6153051;23;20173;-81
2021/09/02 09:30:03;;;;;;;7.40;6.65;;;;;;;17.39;59.89;96476.81;6154038;23;20182;-80
2021/09/02 09:32:36;;;;;;;9.15;6.07;;;;;;;17.63;57.29;96467.25;6154261;23;20194;-80
2021/09/02 09:35:02;;;;;;;9.43;6.85;;;;;;;17.58;56.46;96475.66;6152903;23;20175;-81
2021/09/02 09:37:27;;;;;;;7.65;6.05;;;;;;;17.69;56.74;96467.41;6128702;23;20201;-81
2021/09/02 09:39:52;;;;;;;8.40;6.40;;;;;;;17.87;58.90;96455.88;6155967;23;20162;-80
2021/09/02 09:42:20;;;;;;;8.65;7.75;;;;;;;17.95;58.19;96459.28;6154493;23;20615;-81
2021/09/02 09:44:46;;;;;;;6.97;6.15;;;;;;;17.86;57.90;96462.94;6153764;23;20139;-80
2021/09/02 09:47:13;;;;;;;8.00;6.43;;;;;;;17.94;57.23;96454.22;6153226;23;20171;-81
2021/09/02 09:50:09;;;;;;;9.65;6.05;;;;;;;17.95;53.95;96461.91;6155569;23;20217;-82
2021/09/02 09:52:41;;;;;;;8.27;6.57;;;;;;;18.12;55.10;96457.41;6152714;23;20159;-79
2021/09/02 09:55:07;;;;;;;6.35;5.75;;;;;;;17.97;53.31;96449.44;6127538;23;20202;-80
2021/09/02 09:57:34;;;;;;;7.20;6.13;;;;;;;17.97;54.86;96454.69;6127484;23;20151;-81
2021/09/02 10:00:04;;;;;;;9.00;6.57;;;;;;;17.98;54.51;96450.25;6126854;23;20164;-80
2021/09/02 10:02:29;;;;;;;8.00;6.22;;;;;;;18.09;53.48;96452.47;6127447;23;20159;-81
2021/09/02 10:04:55;;;;;;;8.65;5.78;;;;;;;18.21;54.67;96455.56;6152078;23;20182;-80
2021/09/02 10:07:20;;;;;;;8.10;6.22;;;;;;;18.32;52.40;96444.63;6127526;23;20167;-81
2021/09/02 10:09:46;;;;;;;6.72;5.90;;;;;;;18.26;53.86;96451.41;6127906;23;20159;-81
2021/09/02 10:12:12;;;;;;;9.10;6.00;;;;;;;18.33;54.10;96449.72;6127710;23;20498;-81
2021/09/02 10:14:38;;;;;;;7.88;5.95;;;;;;;18.37;53.36;96443.09;6127352;23;20611;-80
2021/09/02 10:17:03;;;;;;;8.15;6.15;;;;;;;18.44;54.08;96442.41;6126719;23;20179;-81
2021/09/02 10:19:31;;;;;;;6.72;5.85;;;;;;;18.39;52.78;96448.22;6102882;23;20167;-81
2021/09/02 10:21:57;;;;;;;8.63;5.63;;;;;;;18.36;52.89;96446.72;6127920;23;20707;-79
2021/09/02 10:24:40;;;;;;;8.40;5.45;;;;;;;18.44;52.22;96442.41;6127590;23;20159;-80
2021/09/02 10:27:17;;;;;;;7.47;5.47;;;;;;;18.50;52.46;96445.19;6125742;23;20198;-81
2021/09/02 10:29:43;;;;;;;7.07;5.22;;;;;;;18.63;51.83;96445.41;6153881;23;20163;-80
2021/09/02 10:32:24;;;;;;;5.47;4.97;;;;;;;18.57;51.73;96443.50;6128709;23;20163;-81
2021/09/02 10:34:50;;;;;;;5.70;5.20;;;;;;;18.72;52.13;96448.00;6155774;23;20554;-80
2021/09/02 10:37:34;;;;;;;7.32;6.35;;;;;;;18.80;51.33;96438.22;6152533;23;20164;-80
2021/09/02 10:40:09;;;;;;;6.38;5.28;;;;;;;18.94;49.85;96440.09;6154559;23;20215;-79
2021/09/02 10:42:43;;;;;;;6.10;5.32;;;;;;;18.80;50.74;96440.03;6152949;23;20139;-79
2021/09/02 10:45:28;;;;;;;6.20;5.57;;;;;;;18.84;51.31;96436.09;6151274;23;20156;-79
2021/09/02 10:48:15;;;;;;;6.90;5.40;;;;;;;18.84;50.21;96436.91;6153758;23;20162;-78
2021/09/02 10:50:42;;;;;;;6.68;5.07;;;;;;;18.88;50.31;96432.91;6152187;23;20475;-79
2021/09/02 10:53:09;;;;;;;5.28;4.78;;;;;;;18.83;49.24;96430.00;6152372;23;20512;-79
2021/09/02 10:55:37;;;;;;;8.00;5.50;;;;;;;18.78;50.67;96437.59;6151136;23;20197;-78
2021/09/02 10:58:06;;;;;;;7.07;5.57;;;;;;;18.93;49.75;96424.50;6152423;23;20209;-78
2021/09/02 11:00:39;;;;;;;7.60;5.50;;;;;;;18.78;50.82;96426.25;6152803;23;20592;-77
2021/09/02 11:03:25;;;;;;;6.15;5.28;;;;;;;18.72;51.02;96422.50;6152037;23;20178;-77
2021/09/02 11:05:55;;;;;;;6.22;5.28;;;;;;;19.08;51.84;96427.97;6150297;23;20197;-79
2021/09/02 11:08:37;;;;;;;8.77;5.53;;;;;;;19.11;50.66;96430.25;6151860;23;20644;-79
2021/09/02 11:11:13;;;;;;;9.15;5.47;;;;;;;19.20;49.99;96429.16;6127274;23;20510;-78
2021/09/02 11:13:43;;;;;;;5.95;5.38;;;;;;;19.10;49.55;96431.25;6152004;23;20170;-77
2021/09/02 11:16:14;;;;;;;6.78;5.30;;;;;;;19.13;50.20;96430.88;6127099;23;20232;-78
2021/09/02 11:18:50;;;;;;;8.30;5.65;;;;;;;19.29;49.76;96426.44;6153850;23;20190;-79
2021/09/02 11:21:20;;;;;;;6.50;5.88;;;;;;;19.25;50.28;96418.06;6153211;23;20155;-78
2021/09/02 11:23:48;;;;;;;7.47;5.32;;;;;;;19.41;48.74;96414.47;6152761;23;20151;-82
2021/09/02 11:26:32;;;;;;;6.18;5.35;;;;;;;19.30;48.79;96422.81;6152433;23;20183;-78
2021/09/02 11:28:57;;;;;;;8.20;5.82;;;;;;;19.49;48.58;96409.91;6153037;23;20600;-78
2021/09/02 11:31:22;;;;;;;5.57;5.05;;;;;;;19.56;49.67;96411.84;6151940;23;20165;-79